Terminal Aerodrome Forecast
Issued by NWS Wilmington, OH

Current Version | Previous Version | Text Only | Print | Product List | Glossary Off
Versions: 1 2 3 4 5 6 7 8 9 10 11 12 13 14 15 16 17 18

000
FTUS41 KILN 241100
TAFDAY
TAF
KDAY 241134Z 2412/2512 07003KT 5SM BR FEW250
     FM241400 07006KT P6SM SCT040
     FM250000 08004KT P6SM BKN200=

USA.gov is the U.S. government's official web portal to all federal, state and local government web resources and services.